Time;durP1;ratioP1;P1;durP2;ratioP2;P2;SDS_P1;SDS_P2;PMS_P1;PMS_P2;Temp;Humidity;BMP_temperature;BMP_pressure;BME280_temperature;BME280_humidity;BME280_pressure;Samples;Min_cycle;Max_cycle;Signal;HPM_P1;HPM_P2
2022/03/24 00:00:39;;;;;;;63.75;39.78;;;5.40;99.90;;;;;;2096077;28;20070;-72
2022/03/24 00:01:40;;;;;;;62.38;39.03;;;5.40;99.90;;;;;;2096141;28;20040;-71
2022/03/24 00:02:40;;;;;;;59.95;37.83;;;5.30;99.90;;;;;;2098497;28;20039;-73
2022/03/24 00:03:41;;;;;;;59.72;38.42;;;5.40;99.90;;;;;;2096661;28;20512;-71
2022/03/24 00:04:42;;;;;;;59.65;37.65;;;5.30;99.90;;;;;;2096090;28;20154;-72
2022/03/24 00:05:43;;;;;;;59.15;37.65;;;5.30;99.90;;;;;;2097566;28;20029;-70
2022/03/24 00:06:43;;;;;;;59.25;36.85;;;5.30;99.90;;;;;;2096362;28;20028;-70
2022/03/24 00:07:44;;;;;;;57.00;36.05;;;5.30;99.90;;;;;;2096692;28;20709;-70
2022/03/24 00:08:46;;;;;;;56.17;36.78;;;5.30;99.90;;;;;;2098680;28;20032;-70
2022/03/24 00:09:46;;;;;;;56.78;36.92;;;5.30;99.90;;;;;;2096347;28;20445;-70
2022/03/24 00:10:47;;;;;;;58.17;36.22;;;5.30;99.90;;;;;;2096896;28;20028;-72
2022/03/24 00:11:48;;;;;;;57.92;37.05;;;5.30;99.90;;;;;;2098210;28;20046;-72
2022/03/24 00:12:50;;;;;;;56.42;35.85;;;5.30;99.90;;;;;;2096999;28;20040;-72
2022/03/24 00:13:50;;;;;;;58.95;35.88;;;5.30;99.90;;;;;;2096503;28;20426;-72
2022/03/24 00:14:51;;;;;;;56.25;36.13;;;5.20;99.90;;;;;;2097958;28;20033;-72
2022/03/24 00:15:52;;;;;;;58.15;36.05;;;5.20;99.90;;;;;;2096507;28;20506;-72
2022/03/24 00:16:53;;;;;;;56.47;36.30;;;5.20;99.90;;;;;;2097029;28;20028;-71
2022/03/24 00:17:54;;;;;;;57.80;36.80;;;5.20;99.90;;;;;;2098203;28;20059;-69
2022/03/24 00:18:55;;;;;;;58.38;36.88;;;5.20;99.90;;;;;;2096951;28;20031;-70
2022/03/24 00:19:56;;;;;;;57.70;36.90;;;5.20;99.90;;;;;;2093458;28;20107;-70
2022/03/24 00:20:57;;;;;;;57.00;36.03;;;5.20;99.90;;;;;;2092713;28;20036;-69
2022/03/24 00:21:58;;;;;;;58.10;36.97;;;5.20;99.90;;;;;;2096820;28;20097;-70
2022/03/24 00:22:59;;;;;;;58.25;36.42;;;5.10;99.90;;;;;;2096885;28;20095;-71
2022/03/24 00:24:00;;;;;;;59.92;37.28;;;5.10;99.90;;;;;;2097285;28;20064;-69
2022/03/24 00:25:00;;;;;;;58.53;36.30;;;5.10;99.90;;;;;;2095938;28;20075;-70
2022/03/24 00:26:02;;;;;;;59.15;36.90;;;5.10;99.90;;;;;;2096406;28;20024;-70
2022/03/24 00:27:03;;;;;;;56.60;36.42;;;5.10;99.90;;;;;;2097772;28;20036;-70
2022/03/24 00:28:06;;;;;;;61.00;37.35;;;5.00;99.90;;;;;;2095847;28;20474;-70
2022/03/24 00:29:09;;;;;;;59.45;36.90;;;5.00;99.90;;;;;;2096784;28;20027;-70
2022/03/24 00:30:12;;;;;;;61.67;38.10;;;5.10;99.90;;;;;;2097236;28;20063;-69
2022/03/24 00:31:13;;;;;;;61.63;38.65;;;5.10;99.90;;;;;;2079780;28;20114;-70
2022/03/24 00:32:15;;;;;;;58.45;36.72;;;5.00;99.90;;;;;;2088143;28;20119;-70
2022/03/24 00:33:16;;;;;;;60.95;37.55;;;5.00;99.90;;;;;;2097309;28;20695;-70
2022/03/24 00:34:19;;;;;;;59.70;38.03;;;5.00;99.90;;;;;;2087895;28;20029;-69
2022/03/24 00:35:21;;;;;;;62.88;38.55;;;5.00;99.90;;;;;;2096272;28;20028;-70
2022/03/24 00:36:23;;;;;;;63.47;38.90;;;5.00;99.90;;;;;;2097453;28;20077;-71
2022/03/24 00:37:25;;;;;;;61.20;37.00;;;4.90;99.90;;;;;;2096541;28;20050;-70
2022/03/24 00:38:26;;;;;;;58.05;36.67;;;5.00;99.90;;;;;;2096855;28;20414;-71
2022/03/24 00:39:27;;;;;;;60.63;37.30;;;4.90;99.90;;;;;;2096277;28;20094;-71
2022/03/24 00:40:28;;;;;;;56.95;35.80;;;4.90;99.90;;;;;;2095525;28;20031;-71
2022/03/24 00:41:29;;;;;;;56.67;36.58;;;4.90;99.90;;;;;;2089222;28;20071;-69
2022/03/24 00:42:30;;;;;;;58.22;35.90;;;4.90;99.90;;;;;;2088057;28;20040;-71
2022/03/24 00:43:31;;;;;;;57.45;35.85;;;4.90;99.90;;;;;;2097483;28;20498;-71
2022/03/24 00:44:32;;;;;;;54.55;34.63;;;4.90;99.90;;;;;;2099009;28;20112;-71
2022/03/24 00:45:33;;;;;;;55.88;35.13;;;4.90;99.90;;;;;;2097887;28;20024;-71
2022/03/24 00:46:34;;;;;;;56.85;35.60;;;4.90;99.90;;;;;;2098129;28;20131;-72
2022/03/24 00:47:35;;;;;;;58.92;36.35;;;4.90;99.90;;;;;;2098506;28;20025;-70
2022/03/24 00:48:36;;;;;;;55.95;36.17;;;4.90;99.90;;;;;;2097040;28;20016;-71
2022/03/24 00:49:38;;;;;;;58.28;36.13;;;4.90;99.90;;;;;;2097212;28;20052;-70
2022/03/24 00:50:38;;;;;;;59.92;36.08;;;4.90;99.90;;;;;;2098696;28;20036;-71
2022/03/24 00:51:39;;;;;;;57.88;35.50;;;4.90;99.90;;;;;;2095774;28;20037;-70
2022/03/24 00:52:44;;;;;;;59.20;37.53;;;4.80;99.90;;;;;;2088086;28;20594;-72
2022/03/24 00:53:46;;;;;;;60.17;36.97;;;4.80;99.90;;;;;;2083528;28;20036;-70
2022/03/24 00:54:47;;;;;;;57.17;36.55;;;4.80;99.90;;;;;;2095993;28;20032;-71
2022/03/24 00:55:48;;;;;;;59.38;36.42;;;4.80;99.90;;;;;;2096186;28;20119;-71
2022/03/24 00:56:50;;;;;;;59.22;37.28;;;4.80;99.90;;;;;;2097804;28;20024;-71
2022/03/24 00:57:53;;;;;;;59.92;36.58;;;4.80;99.90;;;;;;2095954;28;20064;-70
2022/03/24 00:58:55;;;;;;;59.80;36.97;;;4.70;99.90;;;;;;2096169;28;20035;-71
2022/03/24 00:59:55;;;;;;;55.47;36.30;;;4.70;99.90;;;;;;2097435;28;20028;-71
2022/03/24 01:00:56;;;;;;;54.70;35.55;;;4.70;99.90;;;;;;2096215;28;20024;-71
2022/03/24 01:01:59;;;;;;;60.80;37.08;;;4.70;99.90;;;;;;2095921;28;20637;-70
2022/03/24 01:02:59;;;;;;;57.88;36.83;;;4.70;99.90;;;;;;2106782;28;20020;-70
2022/03/24 01:04:00;;;;;;;56.00;35.58;;;4.70;99.90;;;;;;2097052;28;20060;-71
2022/03/24 01:05:02;;;;;;;61.03;36.85;;;4.70;99.90;;;;;;2096959;28;20135;-71
2022/03/24 01:06:03;;;;;;;56.72;36.22;;;4.70;99.90;;;;;;2097254;28;20024;-71
2022/03/24 01:07:05;;;;;;;56.53;36.72;;;4.60;99.90;;;;;;2088192;28;20021;-70
2022/03/24 01:08:08;;;;;;;56.80;35.97;;;4.70;99.90;;;;;;2092798;28;20098;-70
2022/03/24 01:09:09;;;;;;;57.03;36.20;;;4.60;99.90;;;;;;2089641;28;20119;-70
2022/03/24 01:10:11;;;;;;;56.25;35.67;;;4.60;99.90;;;;;;2087529;28;20070;-71
2022/03/24 01:11:12;;;;;;;56.55;36.13;;;4.60;99.90;;;;;;2096292;28;20036;-70
2022/03/24 01:12:14;;;;;;;56.15;36.45;;;4.60;99.90;;;;;;2097564;28;20116;-72
2022/03/24 01:13:15;;;;;;;57.53;36.97;;;4.60;99.90;;;;;;2097389;28;20078;-71
2022/03/24 01:14:19;;;;;;;57.20;35.97;;;4.60;99.90;;;;;;2096360;28;20103;-71
2022/03/24 01:15:22;;;;;;;57.17;36.38;;;4.60;99.90;;;;;;2098102;28;20023;-71
2022/03/24 01:16:23;;;;;;;59.22;36.30;;;4.50;99.90;;;;;;2096311;28;20505;-72
2022/03/24 01:17:26;;;;;;;56.00;35.80;;;4.50;99.90;;;;;;2097483;28;20067;-71
2022/03/24 01:18:27;;;;;;;58.78;37.00;;;4.50;99.90;;;;;;2095891;28;20058;-72
2022/03/24 01:19:29;;;;;;;59.85;37.90;;;4.50;99.90;;;;;;2096243;28;20057;-72
2022/03/24 01:20:33;;;;;;;56.15;36.33;;;4.50;99.90;;;;;;2096257;28;20582;-71
2022/03/24 01:21:36;;;;;;;58.83;36.45;;;4.50;99.90;;;;;;2087802;28;20029;-71
2022/03/24 01:22:37;;;;;;;58.42;37.00;;;4.50;99.90;;;;;;2095750;28;20032;-71
2022/03/24 01:23:38;;;;;;;55.63;35.90;;;4.40;99.90;;;;;;2098283;28;20032;-72
2022/03/24 01:24:40;;;;;;;58.85;36.47;;;4.50;99.90;;;;;;2089178;28;20032;-71
2022/03/24 01:25:42;;;;;;;57.83;36.42;;;4.40;99.90;;;;;;2095371;28;20029;-71
2022/03/24 01:26:43;;;;;;;57.95;36.47;;;4.40;99.90;;;;;;2097534;28;20044;-70
2022/03/24 01:27:44;;;;;;;55.85;36.25;;;4.40;99.90;;;;;;2094668;28;20326;-71
2022/03/24 01:28:45;;;;;;;55.03;35.22;;;4.40;99.90;;;;;;2095714;28;20027;-71
2022/03/24 01:29:46;;;;;;;58.25;36.63;;;4.40;99.90;;;;;;2090397;28;20168;-71
2022/03/24 01:30:47;;;;;;;59.13;36.97;;;4.40;99.90;;;;;;2097641;28;20502;-70
2022/03/24 01:31:48;;;;;;;57.17;37.13;;;4.40;99.90;;;;;;2087383;28;20025;-71
2022/03/24 01:32:48;;;;;;;58.72;37.50;;;4.40;99.90;;;;;;2089460;28;20108;-71
2022/03/24 01:33:51;;;;;;;58.90;37.78;;;4.40;99.90;;;;;;2090750;28;20021;-70
2022/03/24 01:34:52;;;;;;;62.72;38.13;;;4.40;99.90;;;;;;2096124;28;20048;-72
2022/03/24 01:35:55;;;;;;;59.22;38.10;;;4.40;99.90;;;;;;2088997;28;20190;-72
2022/03/24 01:36:56;;;;;;;59.75;37.65;;;4.40;99.90;;;;;;2079919;28;20555;-72
2022/03/24 01:37:58;;;;;;;61.85;37.55;;;4.40;99.90;;;;;;2091481;28;20039;-71
2022/03/24 01:38:58;;;;;;;61.30;36.72;;;4.40;99.90;;;;;;2098502;28;20427;-72
2022/03/24 01:39:59;;;;;;;59.47;37.80;;;4.40;99.90;;;;;;2094703;28;20028;-71
2022/03/24 01:41:00;;;;;;;59.10;37.90;;;4.30;99.90;;;;;;2096092;28;20707;-70
2022/03/24 01:42:01;;;;;;;56.80;36.75;;;4.30;99.90;;;;;;2097506;28;20643;-71
2022/03/24 01:43:07;;;;;;;59.58;37.97;;;4.30;99.90;;;;;;2095880;28;20074;-72
2022/03/24 01:44:17;;;;;;;62.50;38.10;;;4.30;99.90;;;;;;2094449;28;20028;-72
2022/03/24 01:45:19;;;;;;;66.35;39.35;;;4.20;99.90;;;;;;2096758;28;20070;-71
2022/03/24 01:46:23;;;;;;;65.80;39.10;;;4.20;99.90;;;;;;2095310;28;20578;-71
2022/03/24 01:47:24;;;;;;;65.72;39.08;;;4.20;99.90;;;;;;2097618;28;20025;-71
2022/03/24 01:48:28;;;;;;;68.32;39.80;;;4.20;99.90;;;;;;2095798;28;20033;-72
2022/03/24 01:49:32;;;;;;;67.43;39.10;;;4.20;99.90;;;;;;2095619;28;20749;-71
2022/03/24 01:50:33;;;;;;;63.53;37.75;;;4.20;99.90;;;;;;2096329;28;20064;-71
2022/03/24 01:51:34;;;;;;;64.13;38.80;;;4.20;99.90;;;;;;2096298;28;20530;-72
2022/03/24 01:52:35;;;;;;;64.00;38.90;;;4.20;99.90;;;;;;2095973;28;20169;-72
2022/03/24 01:53:36;;;;;;;63.28;38.95;;;4.20;99.90;;;;;;2097905;28;20074;-71
2022/03/24 01:54:43;;;;;;;62.47;37.75;;;4.20;99.90;;;;;;2096239;28;20029;-71
2022/03/24 01:55:45;;;;;;;59.83;37.78;;;4.20;99.90;;;;;;2095353;28;20036;-72
2022/03/24 01:56:46;;;;;;;58.45;37.17;;;4.20;99.90;;;;;;2097902;28;20032;-72
2022/03/24 01:57:48;;;;;;;59.30;37.85;;;4.10;99.90;;;;;;2095723;28;20586;-72
2022/03/24 01:58:50;;;;;;;58.58;37.65;;;4.20;99.90;;;;;;2095575;28;20465;-72
2022/03/24 01:59:52;;;;;;;58.97;36.72;;;4.10;99.90;;;;;;2096438;28;20032;-72
2022/03/24 02:00:53;;;;;;;60.00;37.28;;;4.10;99.90;;;;;;2087725;28;20029;-72
2022/03/24 02:01:54;;;;;;;58.97;36.90;;;4.10;99.90;;;;;;2090281;28;20769;-70
2022/03/24 02:02:57;;;;;;;59.33;37.55;;;4.10;99.90;;;;;;2097845;28;20037;-70
2022/03/24 02:04:01;;;;;;;59.50;37.08;;;4.10;99.90;;;;;;2095012;28;20538;-70
2022/03/24 02:05:02;;;;;;;65.10;41.03;;;4.10;99.90;;;;;;2095169;28;20419;-71
2022/03/24 02:06:08;;;;;;;70.47;43.92;;;4.10;99.90;;;;;;2097914;28;20033;-72
2022/03/24 02:07:10;;;;;;;72.43;44.22;;;4.10;99.90;;;;;;2087482;28;20032;-71
2022/03/24 02:08:12;;;;;;;74.90;46.30;;;4.10;99.90;;;;;;2094694;28;20025;-71
2022/03/24 02:09:14;;;;;;;70.90;44.65;;;4.10;99.90;;;;;;2097972;28;20441;-71
2022/03/24 02:10:16;;;;;;;69.88;44.50;;;4.10;99.90;;;;;;2094112;28;20020;-71
2022/03/24 02:11:19;;;;;;;70.50;44.08;;;4.10;99.90;;;;;;2087617;28;20024;-70
2022/03/24 02:12:22;;;;;;;73.97;44.05;;;4.00;99.90;;;;;;2095530;28;20111;-71
2022/03/24 02:13:22;;;;;;;73.75;45.70;;;4.00;99.90;;;;;;2095517;28;20017;-70
2022/03/24 02:14:24;;;;;;;73.25;44.67;;;4.00;99.90;;;;;;2079810;28;20041;-71
2022/03/24 02:15:26;;;;;;;73.45;44.88;;;3.90;99.90;;;;;;2087590;28;20025;-70
2022/03/24 02:16:36;;;;;;;70.95;44.50;;;3.90;99.90;;;;;;2094343;28;20515;-71
2022/03/24 02:17:39;;;;;;;71.50;43.92;;;3.90;99.90;;;;;;2089827;28;20025;-71
2022/03/24 02:18:40;;;;;;;72.05;44.47;;;3.90;99.90;;;;;;2088233;28;20029;-70
2022/03/24 02:19:41;;;;;;;73.38;44.47;;;3.90;99.90;;;;;;2087001;28;20040;-71
2022/03/24 02:20:42;;;;;;;77.43;45.72;;;3.80;99.90;;;;;;2088543;28;20045;-72
2022/03/24 02:21:44;;;;;;;74.53;45.58;;;3.80;99.90;;;;;;2086316;28;20052;-71
2022/03/24 02:22:46;;;;;;;79.60;45.90;;;3.80;99.90;;;;;;2095307;28;20051;-71
2022/03/24 02:23:49;;;;;;;73.45;45.72;;;3.80;99.90;;;;;;2096029;28;20016;-71
2022/03/24 02:24:51;;;;;;;75.75;47.00;;;3.80;99.90;;;;;;2095210;28;20062;-70
2022/03/24 02:25:53;;;;;;;75.53;45.67;;;3.80;99.90;;;;;;2094900;28;20535;-70
2022/03/24 02:26:59;;;;;;;78.95;46.75;;;3.80;99.90;;;;;;2098315;28;20013;-72
2022/03/24 02:28:01;;;;;;;72.53;45.80;;;3.80;99.90;;;;;;2096392;28;20020;-71
2022/03/24 02:29:06;;;;;;;76.60;46.33;;;3.80;99.90;;;;;;2096152;28;20085;-71
2022/03/24 02:30:09;;;;;;;72.03;45.30;;;3.70;99.90;;;;;;2096686;28;20035;-71
2022/03/24 02:31:10;;;;;;;73.18;44.90;;;3.70;99.90;;;;;;2090519;28;20025;-70
2022/03/24 02:32:17;;;;;;;69.45;44.00;;;3.70;99.90;;;;;;2092201;28;20123;-71
2022/03/24 02:33:24;;;;;;;73.47;44.90;;;3.70;99.90;;;;;;2096415;28;20025;-71
2022/03/24 02:34:38;;;;;;;71.95;44.42;;;3.60;99.90;;;;;;2088107;28;20716;-71
2022/03/24 02:35:38;;;;;;;73.03;46.03;;;3.60;99.90;;;;;;2095254;28;20598;-70
2022/03/24 02:36:39;;;;;;;73.00;43.22;;;3.60;99.90;;;;;;2095448;28;20051;-70
2022/03/24 02:37:40;;;;;;;76.25;45.25;;;3.60;99.90;;;;;;2087068;28;20514;-70
2022/03/24 02:38:40;;;;;;;72.00;44.78;;;3.60;99.90;;;;;;2097711;28;20373;-71
2022/03/24 02:39:44;;;;;;;72.15;44.10;;;3.60;99.90;;;;;;2095111;28;20130;-70
2022/03/24 02:40:45;;;;;;;70.30;43.63;;;3.60;99.90;;;;;;2093529;28;20104;-70
2022/03/24 02:41:53;;;;;;;67.70;42.97;;;3.50;99.90;;;;;;2087387;28;20025;-70
2022/03/24 02:42:54;;;;;;;69.38;43.22;;;3.50;99.90;;;;;;2087664;28;20025;-70
2022/03/24 02:43:55;;;;;;;70.05;43.63;;;3.50;99.90;;;;;;2095325;28;20037;-71
2022/03/24 02:45:04;;;;;;;68.03;43.10;;;3.50;99.90;;;;;;2086816;28;20025;-70
2022/03/24 02:46:04;;;;;;;69.38;43.60;;;3.50;99.90;;;;;;2091235;28;20027;-70
2022/03/24 02:47:06;;;;;;;71.10;44.25;;;3.50;99.90;;;;;;2095626;28;20559;-70
2022/03/24 02:48:07;;;;;;;69.95;43.03;;;3.50;99.90;;;;;;2094523;28;20446;-70
2022/03/24 02:49:09;;;;;;;69.13;42.63;;;3.50;99.90;;;;;;2086577;28;20025;-70
2022/03/24 02:50:10;;;;;;;67.43;42.33;;;3.50;99.90;;;;;;2094757;28;20028;-70
2022/03/24 02:51:10;;;;;;;69.55;42.88;;;3.50;99.90;;;;;;2095450;28;20038;-70
2022/03/24 02:52:11;;;;;;;66.97;41.85;;;3.50;99.90;;;;;;2095204;28;20033;-70
2022/03/24 02:53:12;;;;;;;65.80;40.83;;;3.40;99.90;;;;;;2095237;28;20484;-70
2022/03/24 02:54:13;;;;;;;65.40;40.03;;;3.40;99.90;;;;;;2095659;28;20047;-71
2022/03/24 02:55:13;;;;;;;62.17;39.17;;;3.40;99.90;;;;;;2089722;28;20048;-71
2022/03/24 02:56:14;;;;;;;63.90;40.60;;;3.40;99.90;;;;;;2093271;28;20115;-70
2022/03/24 02:57:15;;;;;;;64.05;39.60;;;3.40;99.90;;;;;;2095214;28;20036;-71
2022/03/24 02:58:16;;;;;;;62.05;39.13;;;3.40;99.90;;;;;;2095222;28;20044;-70
2022/03/24 02:59:17;;;;;;;64.35;39.63;;;3.40;99.90;;;;;;2095738;28;20086;-71
2022/03/24 03:00:17;;;;;;;61.00;38.58;;;3.40;99.90;;;;;;2095595;28;20129;-71
2022/03/24 03:01:18;;;;;;;63.33;39.05;;;3.40;99.90;;;;;;2095913;28;20042;-71
2022/03/24 03:02:19;;;;;;;62.15;38.88;;;3.30;99.90;;;;;;2095822;28;20066;-70
2022/03/24 03:03:21;;;;;;;61.78;39.40;;;3.40;99.90;;;;;;2095378;28;20043;-71
2022/03/24 03:04:22;;;;;;;65.47;39.75;;;3.30;99.90;;;;;;2095452;28;20036;-71
2022/03/24 03:05:23;;;;;;;67.90;40.88;;;3.30;99.90;;;;;;2095648;28;20039;-71
2022/03/24 03:06:23;;;;;;;65.55;41.60;;;3.30;99.90;;;;;;2095899;28;20434;-70
2022/03/24 03:07:24;;;;;;;64.40;39.78;;;3.30;99.90;;;;;;2096099;28;20038;-71
2022/03/24 03:08:26;;;;;;;63.55;39.40;;;3.30;99.90;;;;;;2098555;28;20024;-71
2022/03/24 03:09:27;;;;;;;64.43;39.80;;;3.20;99.90;;;;;;2099818;28;20028;-71
2022/03/24 03:10:27;;;;;;;63.10;39.10;;;3.20;99.90;;;;;;2091784;28;20480;-71
2022/03/24 03:11:30;;;;;;;61.42;38.92;;;3.20;99.90;;;;;;2099355;28;20031;-71
2022/03/24 03:12:31;;;;;;;65.30;40.58;;;3.20;99.90;;;;;;2099067;28;20083;-71
2022/03/24 03:13:32;;;;;;;65.68;40.38;;;3.20;99.90;;;;;;2099351;28;20039;-71
2022/03/24 03:14:33;;;;;;;62.25;39.13;;;3.20;99.90;;;;;;2098818;28;20060;-71
2022/03/24 03:15:35;;;;;;;68.68;40.90;;;3.20;99.90;;;;;;2094980;28;20047;-71
2022/03/24 03:16:35;;;;;;;67.05;41.00;;;3.20;99.90;;;;;;2095282;28;20562;-70
2022/03/24 03:17:37;;;;;;;63.72;40.50;;;3.10;99.90;;;;;;2095259;28;20025;-70
2022/03/24 03:18:39;;;;;;;63.45;40.08;;;3.10;99.90;;;;;;2095381;28;20581;-71
2022/03/24 03:19:41;;;;;;;64.20;40.35;;;3.10;99.90;;;;;;2095115;28;20593;-71
2022/03/24 03:20:42;;;;;;;65.47;39.85;;;3.10;99.90;;;;;;2095078;28;20036;-71
2022/03/24 03:21:44;;;;;;;65.00;40.22;;;3.10;99.90;;;;;;2095880;28;20021;-70
2022/03/24 03:22:45;;;;;;;62.45;38.80;;;3.10;99.90;;;;;;2095979;28;20078;-70
2022/03/24 03:23:46;;;;;;;62.25;39.95;;;3.10;99.90;;;;;;2095366;28;20048;-72
2022/03/24 03:24:47;;;;;;;64.50;38.58;;;3.10;99.90;;;;;;2095447;28;20762;-72
2022/03/24 03:25:47;;;;;;;62.35;39.05;;;3.10;99.90;;;;;;2094170;28;20490;-72
2022/03/24 03:26:48;;;;;;;66.00;40.55;;;3.00;99.90;;;;;;2090268;28;20117;-72
2022/03/24 03:27:49;;;;;;;64.10;39.20;;;3.10;99.90;;;;;;2096502;28;20374;-72
2022/03/24 03:28:53;;;;;;;59.53;37.67;;;3.00;99.90;;;;;;2095765;28;20031;-72
2022/03/24 03:29:53;;;;;;;61.95;38.25;;;3.00;99.90;;;;;;2095773;28;20029;-71
2022/03/24 03:30:54;;;;;;;62.95;38.88;;;3.00;99.90;;;;;;2088665;28;20032;-72
2022/03/24 03:31:55;;;;;;;62.25;38.55;;;3.00;99.90;;;;;;2081523;28;20057;-72
2022/03/24 03:32:55;;;;;;;60.88;37.50;;;3.00;99.90;;;;;;2089580;28;20021;-72
2022/03/24 03:33:56;;;;;;;58.45;36.90;;;3.00;99.90;;;;;;2099468;28;20059;-72
2022/03/24 03:34:56;;;;;;;62.33;38.47;;;3.00;99.90;;;;;;2090555;28;20499;-72
2022/03/24 03:35:57;;;;;;;59.92;36.63;;;3.00;99.90;;;;;;2091020;28;20025;-72
2022/03/24 03:36:59;;;;;;;59.33;37.58;;;3.00;99.90;;;;;;2091526;28;20330;-72
2022/03/24 03:38:00;;;;;;;63.10;38.72;;;3.00;99.90;;;;;;2091842;28;20041;-72
2022/03/24 03:39:01;;;;;;;62.47;38.60;;;3.00;99.90;;;;;;2094555;28;20059;-72
2022/03/24 03:40:02;;;;;;;61.92;38.47;;;3.00;99.90;;;;;;2099349;28;20099;-72
2022/03/24 03:41:03;;;;;;;61.45;38.03;;;2.90;99.90;;;;;;2090877;28;20067;-72
2022/03/24 03:42:04;;;;;;;61.95;37.85;;;2.90;99.90;;;;;;2099757;28;20524;-71
2022/03/24 03:43:05;;;;;;;58.58;37.70;;;2.90;99.90;;;;;;2099845;28;20031;-71
2022/03/24 03:44:06;;;;;;;59.47;36.78;;;3.00;99.90;;;;;;2099405;28;20064;-71
2022/03/24 03:45:07;;;;;;;61.42;38.63;;;2.90;99.90;;;;;;2100416;28;20037;-72
2022/03/24 03:46:09;;;;;;;61.28;37.95;;;2.90;99.90;;;;;;2100535;28;20039;-71
2022/03/24 03:47:09;;;;;;;60.35;38.05;;;2.90;99.90;;;;;;2099887;28;20035;-72
2022/03/24 03:48:11;;;;;;;60.67;38.25;;;2.90;99.90;;;;;;2099127;28;20060;-71
2022/03/24 03:49:12;;;;;;;62.60;38.05;;;2.90;99.90;;;;;;2099127;28;20027;-71
2022/03/24 03:50:13;;;;;;;60.45;37.70;;;2.90;99.90;;;;;;2099860;28;20483;-72
2022/03/24 03:51:14;;;;;;;60.72;38.17;;;2.90;99.90;;;;;;2099789;28;20503;-72
2022/03/24 03:52:15;;;;;;;61.13;38.50;;;2.90;99.90;;;;;;2090680;28;20025;-72
2022/03/24 03:53:16;;;;;;;61.97;37.50;;;2.90;99.90;;;;;;2089887;28;20041;-71
2022/03/24 03:54:16;;;;;;;64.32;39.97;;;2.90;99.90;;;;;;2097820;28;20501;-71
2022/03/24 03:55:17;;;;;;;62.70;38.78;;;2.90;99.90;;;;;;2097565;28;20021;-70
2022/03/24 03:56:17;;;;;;;64.68;39.75;;;2.80;99.90;;;;;;2097821;28;20108;-70
2022/03/24 03:57:18;;;;;;;61.85;39.15;;;2.80;99.90;;;;;;2097776;28;20107;-72
2022/03/24 03:58:19;;;;;;;62.38;38.33;;;2.80;99.90;;;;;;2097941;28;20032;-70
2022/03/24 03:59:20;;;;;;;62.08;38.67;;;2.80;99.90;;;;;;2097450;28;20035;-71
2022/03/24 04:01:40;;;;;;;63.03;38.60;;;2.80;99.90;;;;;;2085430;28;20101;-71
2022/03/24 04:02:42;;;;;;;61.55;38.58;;;2.80;99.90;;;;;;2088931;28;20119;-70
2022/03/24 04:03:43;;;;;;;60.88;37.10;;;2.80;99.90;;;;;;2097027;28;20032;-72
2022/03/24 04:04:44;;;;;;;62.10;38.50;;;2.80;99.90;;;;;;2096410;28;20535;-71
2022/03/24 04:05:44;;;;;;;63.83;38.50;;;2.80;99.90;;;;;;2096465;28;20033;-72
2022/03/24 04:06:45;;;;;;;63.85;39.22;;;2.80;99.90;;;;;;2096650;28;20029;-70
2022/03/24 04:07:47;;;;;;;61.72;38.45;;;2.80;99.90;;;;;;2088606;28;20392;-71
2022/03/24 04:08:47;;;;;;;60.55;38.63;;;2.80;99.90;;;;;;2097355;28;20052;-71
2022/03/24 04:09:48;;;;;;;66.05;39.35;;;2.80;99.90;;;;;;2096780;28;20039;-70
2022/03/24 04:10:49;;;;;;;59.35;36.97;;;2.70;99.90;;;;;;2096580;28;20031;-70
2022/03/24 04:11:50;;;;;;;62.55;37.65;;;2.70;99.90;;;;;;2096622;28;20051;-71
2022/03/24 04:12:53;;;;;;;64.63;39.42;;;2.80;99.90;;;;;;2096806;28;20078;-71
2022/03/24 04:13:54;;;;;;;59.40;37.25;;;2.80;99.90;;;;;;2097749;28;20678;-72
2022/03/24 04:14:54;;;;;;;64.10;38.75;;;2.70;99.90;;;;;;2097082;28;20031;-72
2022/03/24 04:15:55;;;;;;;62.95;38.63;;;2.70;99.90;;;;;;2097165;28;20036;-72
2022/03/24 04:16:57;;;;;;;63.28;38.65;;;2.70;99.90;;;;;;2097534;28;20115;-71
2022/03/24 04:17:58;;;;;;;62.45;37.75;;;2.70;99.90;;;;;;2096516;28;20036;-71
2022/03/24 04:18:58;;;;;;;62.35;39.20;;;2.70;99.90;;;;;;2088579;28;20021;-73
2022/03/24 04:19:59;;;;;;;60.53;38.72;;;2.70;99.90;;;;;;2096300;28;20041;-73
2022/03/24 04:20:59;;;;;;;64.40;38.50;;;2.60;99.90;;;;;;2097184;28;20020;-70
2022/03/24 04:22:01;;;;;;;62.55;39.00;;;2.60;99.90;;;;;;2097139;28;20021;-71
2022/03/24 04:23:04;;;;;;;61.65;39.00;;;2.60;99.90;;;;;;2088392;28;20044;-71
2022/03/24 04:24:04;;;;;;;63.85;37.95;;;2.60;99.90;;;;;;2096392;28;20029;-70
2022/03/24 04:25:06;;;;;;;64.90;38.75;;;2.60;99.90;;;;;;2096654;28;20068;-70
2022/03/24 04:26:07;;;;;;;63.92;38.55;;;2.60;99.90;;;;;;2096433;28;20103;-70
2022/03/24 04:27:08;;;;;;;63.90;39.72;;;2.60;99.90;;;;;;2096345;28;20732;-72
2022/03/24 04:28:09;;;;;;;62.85;38.63;;;2.60;99.90;;;;;;2097085;28;20403;-69
2022/03/24 04:29:09;;;;;;;63.72;39.55;;;2.60;99.90;;;;;;2097578;28;20067;-69
2022/03/24 04:30:14;;;;;;;61.78;38.50;;;2.60;99.90;;;;;;2096061;28;20040;-72
2022/03/24 04:31:15;;;;;;;62.70;38.65;;;2.50;99.90;;;;;;2088885;28;20439;-72
2022/03/24 04:32:16;;;;;;;63.65;38.70;;;2.50;99.90;;;;;;2079990;28;20611;-70
2022/03/24 04:33:17;;;;;;;61.03;37.55;;;2.50;99.90;;;;;;2088673;28;20052;-72
2022/03/24 04:34:17;;;;;;;61.45;38.67;;;2.50;99.90;;;;;;2097491;28;20029;-72
2022/03/24 04:35:18;;;;;;;66.60;40.70;;;2.50;99.90;;;;;;2087472;28;20067;-71
2022/03/24 04:36:19;;;;;;;62.90;38.28;;;2.50;99.90;;;;;;2088705;28;20037;-73
2022/03/24 04:37:19;;;;;;;66.15;39.53;;;2.50;99.90;;;;;;2088331;28;20056;-72
2022/03/24 04:38:20;;;;;;;65.95;39.60;;;2.50;99.90;;;;;;2087969;28;20068;-71
2022/03/24 04:39:21;;;;;;;64.78;39.85;;;2.50;99.90;;;;;;2097500;28;20043;-72
2022/03/24 04:40:22;;;;;;;59.58;37.90;;;2.50;99.90;;;;;;2096763;28;20028;-72
2022/03/24 04:41:23;;;;;;;62.83;38.70;;;2.50;99.90;;;;;;2097159;28;20488;-71
2022/03/24 04:42:24;;;;;;;62.42;38.67;;;2.50;99.90;;;;;;2088812;28;20025;-70
2022/03/24 04:43:25;;;;;;;61.00;38.00;;;2.50;99.90;;;;;;2089318;28;20021;-71
2022/03/24 04:44:25;;;;;;;63.80;38.55;;;2.40;99.90;;;;;;2089494;28;20037;-70
2022/03/24 04:45:29;;;;;;;63.30;39.55;;;2.50;99.90;;;;;;2089292;28;20064;-71
2022/03/24 04:46:33;;;;;;;68.13;39.67;;;2.40;99.90;;;;;;2088801;28;20068;-71
2022/03/24 04:47:34;;;;;;;67.38;38.55;;;2.40;99.90;;;;;;2089258;28;20074;-71
2022/03/24 04:48:38;;;;;;;66.55;39.72;;;2.50;99.90;;;;;;2081098;28;20584;-72
2022/03/24 04:49:38;;;;;;;65.45;39.40;;;2.40;99.90;;;;;;2081834;28;20034;-71
2022/03/24 04:50:39;;;;;;;66.82;39.60;;;2.40;99.90;;;;;;2088873;28;20035;-72
2022/03/24 04:51:40;;;;;;;62.30;37.90;;;2.40;99.90;;;;;;2089276;28;20028;-72
2022/03/24 04:52:41;;;;;;;62.63;38.95;;;2.40;99.90;;;;;;2088871;28;20608;-71
2022/03/24 04:53:42;;;;;;;64.15;39.38;;;2.40;99.90;;;;;;2089177;28;20036;-71
2022/03/24 04:54:42;;;;;;;65.97;39.00;;;2.40;99.90;;;;;;2080695;28;20188;-71
2022/03/24 04:55:44;;;;;;;62.00;38.22;;;2.40;99.90;;;;;;2089553;28;20029;-72
2022/03/24 04:56:45;;;;;;;63.75;37.72;;;2.40;99.90;;;;;;2089085;28;20021;-71
2022/03/24 04:57:46;;;;;;;61.65;38.30;;;2.40;99.90;;;;;;2088960;28;20025;-70
2022/03/24 04:58:48;;;;;;;60.53;37.22;;;2.40;99.90;;;;;;2080580;28;20064;-70
2022/03/24 04:59:48;;;;;;;61.60;37.00;;;2.40;99.90;;;;;;2088280;28;20029;-70
2022/03/24 05:00:49;;;;;;;62.20;38.15;;;2.40;99.90;;;;;;2088131;28;20056;-71
2022/03/24 05:01:49;;;;;;;61.00;38.00;;;2.40;99.90;;;;;;2089097;28;20051;-72
2022/03/24 05:02:50;;;;;;;66.03;38.65;;;2.40;99.90;;;;;;2089339;28;20154;-71
2022/03/24 05:03:51;;;;;;;66.60;39.40;;;2.40;99.90;;;;;;2088407;28;20135;-71
2022/03/24 05:04:54;;;;;;;64.85;38.80;;;2.40;99.90;;;;;;2088639;28;20040;-71
2022/03/24 05:05:54;;;;;;;64.05;37.78;;;2.40;99.90;;;;;;2089661;28;20158;-72
2022/03/24 05:06:55;;;;;;;64.57;38.60;;;2.40;99.90;;;;;;2089721;28;20124;-70
2022/03/24 05:07:56;;;;;;;65.93;39.60;;;2.40;99.90;;;;;;2089123;28;20082;-70
2022/03/24 05:08:56;;;;;;;68.90;40.33;;;2.40;99.90;;;;;;2096425;28;20042;-71
2022/03/24 05:09:57;;;;;;;65.95;39.83;;;2.40;99.90;;;;;;2088894;28;20067;-70
2022/03/24 05:10:58;;;;;;;72.57;40.85;;;2.40;99.90;;;;;;2088664;28;20602;-70
2022/03/24 05:11:58;;;;;;;64.15;38.40;;;2.40;99.90;;;;;;2088625;28;20048;-71
2022/03/24 05:12:59;;;;;;;66.80;39.65;;;2.30;99.90;;;;;;2088073;28;20032;-71
2022/03/24 05:14:01;;;;;;;64.72;39.53;;;2.40;99.90;;;;;;2088213;28;20055;-71
2022/03/24 05:15:02;;;;;;;62.80;39.03;;;2.30;99.90;;;;;;2088098;28;20037;-71
2022/03/24 05:16:03;;;;;;;63.55;39.10;;;2.40;99.90;;;;;;2087945;28;20032;-71
2022/03/24 05:17:05;;;;;;;62.67;38.85;;;2.40;99.90;;;;;;2089905;28;20020;-72